Time;durP1;ratioP1;P1;durP2;ratioP2;P2;SDS_P1;SDS_P2;PMS_P1;PMS_P2;Temp;Humidity;BMP_temperature;BMP_pressure;BME280_temperature;BME280_humidity;BME280_pressure;Samples;Min_cycle;Max_cycle;Signal;HPM_P1;HPM_P2
2022/11/16 00:00:10;;;;;;;2.87;2.60;;;11.10;99.90;;;;;;4978915;28;21400;-62
2022/11/16 00:02:39;;;;;;;3.50;2.60;;;11.10;99.90;;;;;;4986253;28;20286;-62
2022/11/16 00:05:08;;;;;;;2.77;2.57;;;11.10;99.90;;;;;;4983622;28;20230;-62
2022/11/16 00:07:37;;;;;;;2.70;2.50;;;11.00;99.90;;;;;;4987585;28;20558;-63
2022/11/16 00:10:06;;;;;;;2.70;2.60;;;11.00;99.90;;;;;;4981304;28;20199;-62
2022/11/16 00:12:34;;;;;;;2.70;2.53;;;11.00;99.90;;;;;;4980527;28;20550;-62
2022/11/16 00:15:04;;;;;;;3.03;2.73;;;10.90;99.90;;;;;;4982244;28;20589;-62
2022/11/16 00:17:32;;;;;;;3.23;2.27;;;10.90;99.90;;;;;;5001329;28;20202;-62
2022/11/16 00:20:02;;;;;;;3.17;2.47;;;10.90;99.90;;;;;;4984566;28;20570;-62
2022/11/16 00:22:30;;;;;;;3.40;2.80;;;10.80;99.90;;;;;;4987837;28;20210;-62
2022/11/16 00:24:58;;;;;;;2.60;2.50;;;10.80;99.90;;;;;;4987570;28;20191;-62
2022/11/16 00:27:27;;;;;;;2.33;2.20;;;10.80;99.90;;;;;;4986004;28;20296;-62
2022/11/16 00:29:55;;;;;;;2.70;2.50;;;10.80;99.90;;;;;;4985555;28;20561;-62
2022/11/16 00:32:23;;;;;;;3.33;3.03;;;10.80;99.90;;;;;;4987409;28;20541;-63
2022/11/16 00:34:55;;;;;;;2.70;2.57;;;10.80;99.90;;;;;;4979626;28;20196;-62
2022/11/16 00:37:24;;;;;;;3.13;2.80;;;10.80;99.90;;;;;;4985561;28;20218;-62
2022/11/16 00:39:53;;;;;;;3.73;2.63;;;10.80;99.90;;;;;;4981243;28;20652;-62
2022/11/16 00:42:21;;;;;;;3.07;2.87;;;10.80;99.90;;;;;;4982510;28;20650;-62
2022/11/16 00:44:49;;;;;;;2.97;2.80;;;10.80;99.90;;;;;;5017709;28;20209;-63
2022/11/16 00:47:18;;;;;;;3.00;2.60;;;10.80;99.90;;;;;;4983340;28;20206;-62
2022/11/16 00:49:46;;;;;;;2.90;2.70;;;10.90;99.90;;;;;;4987734;28;20700;-62
2022/11/16 00:52:14;;;;;;;3.13;2.80;;;10.80;99.90;;;;;;4978929;28;20198;-62
2022/11/16 00:54:44;;;;;;;4.10;3.37;;;10.80;99.90;;;;;;4986027;28;20582;-62
2022/11/16 00:57:12;;;;;;;4.20;2.90;;;10.80;99.90;;;;;;4986563;28;20195;-62
2022/11/16 00:59:41;;;;;;;4.23;3.00;;;10.80;99.90;;;;;;4986467;28;20210;-62
2022/11/16 01:02:09;;;;;;;3.40;3.10;;;10.80;99.90;;;;;;4990152;28;20195;-62
2022/11/16 01:04:37;;;;;;;2.80;2.70;;;10.80;99.90;;;;;;4985460;28;20199;-63
2022/11/16 01:07:06;;;;;;;3.17;2.77;;;10.70;99.90;;;;;;4984771;28;20554;-62
2022/11/16 01:09:34;;;;;;;5.00;3.23;;;10.70;99.90;;;;;;4990500;28;20529;-62
2022/11/16 01:12:11;;;;;;;3.30;3.10;;;10.60;99.90;;;;;;4985532;28;20220;-62
2022/11/16 01:14:42;;;;;;;3.93;3.07;;;10.60;99.90;;;;;;4983294;28;20218;-62
2022/11/16 01:17:11;;;;;;;3.17;2.80;;;10.60;99.90;;;;;;4985410;28;20202;-62
2022/11/16 01:19:39;;;;;;;8.73;3.00;;;10.60;99.90;;;;;;4981237;28;20234;-62
2022/11/16 01:22:08;;;;;;;3.40;3.07;;;10.50;99.90;;;;;;4982120;28;20198;-62
2022/11/16 01:24:37;;;;;;;4.40;2.80;;;10.50;99.90;;;;;;4987449;28;20206;-62
2022/11/16 01:27:06;;;;;;;5.33;3.30;;;10.50;99.90;;;;;;4989732;28;20701;-62
2022/11/16 01:29:35;;;;;;;3.83;2.90;;;10.40;99.90;;;;;;4983562;28;20228;-62
2022/11/16 01:32:03;;;;;;;3.30;3.10;;;10.40;99.90;;;;;;4989519;28;20481;-63
2022/11/16 01:34:32;;;;;;;3.57;2.60;;;10.40;99.90;;;;;;4976783;28;20543;-63
2022/11/16 01:37:00;;;;;;;4.40;3.07;;;10.40;99.90;;;;;;4971843;28;20207;-63
2022/11/16 01:39:28;;;;;;;9.13;3.00;;;10.40;99.90;;;;;;4972970;28;20202;-62
2022/11/16 01:41:57;;;;;;;7.63;3.27;;;10.40;99.90;;;;;;4971654;28;20196;-62
2022/11/16 01:45:04;;;;;;;7.67;2.67;;;10.30;99.90;;;;;;4974342;28;20222;-62
2022/11/16 01:47:32;;;;;;;5.77;2.60;;;10.30;99.90;;;;;;4973965;28;20242;-62
2022/11/16 01:50:08;;;;;;;3.73;2.40;;;10.20;99.90;;;;;;4971987;28;20200;-62
2022/11/16 01:52:43;;;;;;;5.50;2.50;;;10.20;99.90;;;;;;4996246;28;20202;-62
2022/11/16 01:55:13;;;;;;;5.27;2.63;;;10.20;99.90;;;;;;4973055;28;20199;-62
2022/11/16 01:57:43;;;;;;;6.77;2.67;;;10.10;99.90;;;;;;4983851;28;20191;-62
2022/11/16 02:00:15;;;;;;;11.63;2.87;;;10.10;99.90;;;;;;4980352;28;20207;-62
2022/11/16 02:02:43;;;;;;;3.23;2.30;;;10.20;99.90;;;;;;4976856;28;20210;-62
2022/11/16 02:05:16;;;;;;;6.70;2.40;;;10.20;99.90;;;;;;5011010;27;20203;-62
2022/11/16 02:11:08;;;;;;;4.33;2.70;;;10.30;99.90;;;;;;4973563;28;20657;-63
2022/11/16 02:13:50;;;;;;;3.83;2.00;;;10.20;99.90;;;;;;4978622;28;20207;-62
2022/11/16 02:16:32;;;;;;;4.03;2.30;;;10.20;99.90;;;;;;4975850;28;20195;-62
2022/11/16 02:19:08;;;;;;;6.07;2.30;;;10.20;99.90;;;;;;4984108;28;20687;-62
2022/11/16 02:21:42;;;;;;;5.33;2.60;;;10.10;99.90;;;;;;4978539;28;20781;-62
2022/11/16 02:24:43;;;;;;;5.20;2.30;;;10.10;99.90;;;;;;4983925;28;20538;-62
2022/11/16 02:27:35;;;;;;;7.57;2.13;;;10.10;99.90;;;;;;4975951;28;20229;-62
2022/11/16 02:30:07;;;;;;;8.37;2.23;;;10.00;99.90;;;;;;4979060;28;20203;-62
2022/11/16 02:32:41;;;;;;;6.10;2.10;;;10.00;99.90;;;;;;4992849;28;20195;-62
2022/11/16 02:35:14;;;;;;;4.03;2.00;;;9.90;99.90;;;;;;4976649;28;20567;-62
2022/11/16 02:37:49;;;;;;;4.67;2.20;;;9.90;99.90;;;;;;4977561;28;20191;-62
2022/11/16 02:40:20;;;;;;;5.83;2.30;;;9.90;99.90;;;;;;4979169;28;20582;-62
2022/11/16 02:42:52;;;;;;;3.47;2.10;;;9.80;99.90;;;;;;4975050;28;20192;-62
2022/11/16 02:45:25;;;;;;;7.13;2.10;;;9.80;99.90;;;;;;4978538;28;20203;-62
2022/11/16 02:48:00;;;;;;;6.43;2.03;;;9.70;99.90;;;;;;4973732;28;20242;-62
2022/11/16 02:50:32;;;;;;;6.07;2.00;;;9.60;99.90;;;;;;4983201;28;20198;-62
2022/11/16 02:53:00;;;;;;;7.00;2.33;;;9.60;99.90;;;;;;4976386;28;20200;-62
2022/11/16 02:55:32;;;;;;;2.77;2.20;;;9.50;99.90;;;;;;4974096;28;20213;-62
2022/11/16 02:58:02;;;;;;;3.90;2.33;;;9.40;99.90;;;;;;4973368;28;20195;-62
2022/11/16 03:00:42;;;;;;;6.43;2.10;;;9.40;99.90;;;;;;4989404;28;20207;-62
2022/11/16 03:03:20;;;;;;;8.37;2.50;;;9.40;99.90;;;;;;4975181;28;20196;-62
2022/11/16 03:05:53;;;;;;;6.57;2.50;;;9.30;99.90;;;;;;5000531;28;20240;-62
2022/11/16 03:08:25;;;;;;;8.43;2.47;;;9.20;99.90;;;;;;4981324;28;20222;-64
2022/11/16 03:13:46;;;;;;;6.50;2.90;;;9.20;99.90;;;;;;4977811;28;20650;-62
2022/11/16 03:16:20;;;;;;;6.13;3.20;;;9.10;99.90;;;;;;4982563;28;20215;-62
2022/11/16 03:18:52;;;;;;;8.73;3.50;;;9.00;99.90;;;;;;4981505;28;20284;-62
2022/11/16 03:21:28;;;;;;;10.50;3.60;;;9.10;99.90;;;;;;4984012;28;20590;-62
2022/11/16 03:23:57;;;;;;;6.30;3.60;;;9.10;99.90;;;;;;4987340;28;20201;-62
2022/11/16 03:26:33;;;;;;;8.87;3.60;;;9.10;99.90;;;;;;4983755;28;20190;-62
2022/11/16 03:29:12;;;;;;;9.10;3.93;;;9.10;99.90;;;;;;4978813;28;20210;-62
2022/11/16 03:31:48;;;;;;;9.17;3.70;;;9.10;99.90;;;;;;4993011;28;20199;-62
2022/11/16 03:34:19;;;;;;;9.23;3.33;;;9.10;99.90;;;;;;5014608;28;20195;-62
2022/11/16 03:36:52;;;;;;;9.13;3.33;;;9.10;99.90;;;;;;4980479;28;20206;-62
2022/11/16 03:39:25;;;;;;;7.70;3.70;;;9.10;99.90;;;;;;4986862;28;20195;-62
2022/11/16 03:41:54;;;;;;;8.77;3.10;;;9.10;99.90;;;;;;4982791;28;20199;-62
2022/11/16 03:44:23;;;;;;;9.73;3.67;;;9.00;99.90;;;;;;4980429;28;20207;-62
2022/11/16 03:46:52;;;;;;;11.57;3.27;;;9.10;99.90;;;;;;4989129;28;20212;-62
2022/11/16 03:49:22;;;;;;;9.80;3.40;;;9.00;99.90;;;;;;4990016;28;20226;-62
2022/11/16 03:51:51;;;;;;;5.57;3.33;;;9.00;99.90;;;;;;4986641;28;20568;-62
2022/11/16 03:54:19;;;;;;;9.40;3.97;;;8.90;99.90;;;;;;4980657;28;20200;-62
2022/11/16 03:56:47;;;;;;;8.67;3.77;;;8.90;99.90;;;;;;4981353;28;20649;-62
2022/11/16 03:59:16;;;;;;;10.17;3.50;;;8.90;99.90;;;;;;4989268;28;20645;-62
2022/11/16 04:01:44;;;;;;;9.60;3.53;;;8.90;99.90;;;;;;4987309;28;20198;-62
2022/11/16 04:28:11;;;;;;;8.33;4.70;;;8.90;99.90;;;;;;4984542;28;20198;-62
2022/11/16 04:29:10;;;;;;;9.47;4.73;;;9.00;99.90;;;;;;4982949;28;20218;-62
2022/11/16 04:40:01;;;;;;;12.37;5.23;;;8.90;99.90;;;;;;4983523;28;20209;-62
2022/11/16 04:42:29;;;;;;;12.47;5.03;;;8.90;99.90;;;;;;4983788;28;20195;-62
2022/11/16 04:47:43;;;;;;;18.00;5.00;;;8.90;99.90;;;;;;4985472;28;20228;-61
2022/11/16 04:50:12;;;;;;;16.47;5.13;;;8.90;99.90;;;;;;4982034;28;20708;-61
2022/11/16 04:52:41;;;;;;;12.57;4.47;;;8.90;99.90;;;;;;4997338;28;20196;-61
2022/11/16 04:55:10;;;;;;;10.83;4.27;;;8.80;99.90;;;;;;4985160;28;20195;-61
2022/11/16 04:57:39;;;;;;;12.00;4.63;;;8.80;99.90;;;;;;4982849;28;20199;-62
2022/11/16 05:00:09;;;;;;;13.30;3.80;;;8.80;99.90;;;;;;5000837;28;20196;-61
2022/11/16 05:02:37;;;;;;;11.67;3.90;;;8.80;99.90;;;;;;4979334;28;20227;-62
2022/11/16 05:05:07;;;;;;;9.77;4.33;;;8.80;99.90;;;;;;5009558;28;20195;-61
2022/11/16 05:07:35;;;;;;;12.10;3.97;;;8.80;99.90;;;;;;4987464;28;20221;-61
2022/11/16 05:10:07;;;;;;;19.53;4.13;;;8.70;99.90;;;;;;4984301;28;20292;-61
2022/11/16 05:12:35;;;;;;;12.57;3.37;;;8.80;99.90;;;;;;4980291;28;20209;-62
2022/11/16 05:15:04;;;;;;;11.67;3.20;;;8.70;99.90;;;;;;4983764;28;20203;-62
2022/11/16 05:17:33;;;;;;;9.10;2.97;;;8.70;99.90;;;;;;4984145;28;20199;-62
2022/11/16 05:22:53;;;;;;;12.37;3.50;;;8.60;99.90;;;;;;4986092;28;20202;-62
2022/11/16 05:25:22;;;;;;;11.57;3.20;;;8.70;99.90;;;;;;4999872;28;20195;-61
2022/11/16 05:27:50;;;;;;;10.83;3.27;;;8.60;99.90;;;;;;4984052;28;20209;-62
2022/11/16 05:30:21;;;;;;;10.43;3.37;;;8.60;99.90;;;;;;4984873;28;20268;-61
2022/11/16 05:32:49;;;;;;;8.80;3.20;;;8.50;99.90;;;;;;4980863;28;20217;-61
2022/11/16 05:35:18;;;;;;;13.53;2.90;;;8.50;99.90;;;;;;4972665;28;20196;-62
2022/11/16 05:37:46;;;;;;;11.73;3.33;;;8.50;99.90;;;;;;5006090;28;20203;-61
2022/11/16 05:40:15;;;;;;;16.23;3.10;;;8.50;99.90;;;;;;4973966;28;20205;-61
2022/11/16 05:42:44;;;;;;;10.33;2.80;;;8.50;99.90;;;;;;4976647;28;20535;-61
2022/11/16 05:45:13;;;;;;;15.40;2.90;;;8.50;99.90;;;;;;4985211;28;20677;-61
2022/11/16 05:47:48;;;;;;;14.57;3.30;;;8.50;99.90;;;;;;4978294;28;20226;-62
2022/11/16 05:50:17;;;;;;;17.03;3.47;;;8.40;99.90;;;;;;4977122;28;20223;-61
2022/11/16 05:52:45;;;;;;;11.77;2.83;;;8.40;99.90;;;;;;4980945;28;20195;-61
2022/11/16 05:55:13;;;;;;;12.37;3.17;;;8.40;99.90;;;;;;4967177;28;20194;-61
2022/11/16 05:57:42;;;;;;;10.13;2.97;;;8.30;99.90;;;;;;4975733;28;20190;-61
2022/11/16 06:00:13;;;;;;;11.53;3.00;;;8.30;99.90;;;;;;4986476;28;20191;-61
2022/11/16 06:02:41;;;;;;;12.40;3.30;;;8.30;99.90;;;;;;5066805;28;20205;-61
2022/11/16 06:05:10;;;;;;;22.13;3.10;;;8.30;99.90;;;;;;4991795;28;20255;-61
2022/11/16 06:07:38;;;;;;;11.23;2.87;;;8.30;99.90;;;;;;4991150;28;20184;-61
2022/11/16 06:10:07;;;;;;;16.13;3.43;;;8.30;99.90;;;;;;4981492;28;20280;-61
2022/11/16 06:12:35;;;;;;;10.50;2.73;;;8.30;99.90;;;;;;4982735;28;20546;-61
2022/11/16 06:15:04;;;;;;;14.67;2.97;;;8.30;99.90;;;;;;4974130;28;20200;-61
2022/11/16 06:17:34;;;;;;;10.50;3.13;;;8.30;99.90;;;;;;4979336;28;20191;-61
2022/11/16 06:20:02;;;;;;;12.43;3.20;;;8.30;99.90;;;;;;4974473;28;20234;-61
2022/11/16 06:22:31;;;;;;;16.83;3.40;;;8.20;99.90;;;;;;4981070;28;20550;-61
2022/11/16 06:24:59;;;;;;;11.00;2.97;;;8.20;99.90;;;;;;4975966;28;20696;-61
2022/11/16 06:27:27;;;;;;;10.70;3.37;;;8.20;99.90;;;;;;4975335;28;20199;-61
2022/11/16 06:29:56;;;;;;;20.50;3.80;;;8.20;99.90;;;;;;4980917;28;20712;-61
2022/11/16 06:32:24;;;;;;;9.47;3.20;;;8.20;99.90;;;;;;4982710;28;20194;-61
2022/11/16 06:34:54;;;;;;;16.97;3.40;;;8.10;99.90;;;;;;4974368;28;20202;-61
2022/11/16 06:37:22;;;;;;;10.87;3.33;;;8.10;99.90;;;;;;4984002;28;20203;-61
2022/11/16 06:39:50;;;;;;;16.33;3.20;;;8.10;99.90;;;;;;4977894;28;20194;-61
2022/11/16 06:42:19;;;;;;;14.00;3.40;;;8.10;99.90;;;;;;4976386;28;20217;-61
2022/11/16 06:44:47;;;;;;;11.67;3.10;;;8.10;99.90;;;;;;4976357;28;20200;-61
2022/11/16 06:47:15;;;;;;;12.20;3.40;;;8.20;99.90;;;;;;4980863;28;20206;-61
2022/11/16 06:49:44;;;;;;;6.77;3.17;;;8.20;99.90;;;;;;4985074;28;20542;-61
2022/11/16 06:52:14;;;;;;;17.43;3.50;;;8.20;99.90;;;;;;4977721;28;20191;-61
2022/11/16 06:54:43;;;;;;;12.47;3.40;;;8.20;99.90;;;;;;4985783;28;20218;-61
2022/11/16 06:57:11;;;;;;;15.47;4.10;;;8.10;99.90;;;;;;5009038;28;20203;-61
2022/11/16 06:59:39;;;;;;;9.47;3.37;;;8.10;99.90;;;;;;4984259;28;20190;-61
2022/11/16 07:02:09;;;;;;;14.43;4.17;;;8.00;99.90;;;;;;4981484;28;20854;-61
2022/11/16 07:04:38;;;;;;;18.40;4.00;;;8.00;99.90;;;;;;4982939;28;20538;-61
2022/11/16 07:07:06;;;;;;;14.23;3.90;;;8.10;99.90;;;;;;4982576;28;20195;-61
2022/11/16 07:09:36;;;;;;;14.60;3.70;;;8.10;99.90;;;;;;4975924;28;20675;-61
2022/11/16 07:12:05;;;;;;;16.27;3.90;;;8.00;99.90;;;;;;4982576;28;20209;-61
2022/11/16 07:14:33;;;;;;;14.47;3.80;;;8.00;99.90;;;;;;4978054;28;20196;-61
2022/11/16 07:17:01;;;;;;;16.63;3.70;;;8.00;99.90;;;;;;4988622;28;20557;-61
2022/11/16 07:19:36;;;;;;;12.73;4.20;;;8.00;99.90;;;;;;4996282;28;20233;-61
2022/11/16 07:22:05;;;;;;;14.37;4.07;;;8.00;99.90;;;;;;4981544;28;20199;-61
2022/11/16 07:24:33;;;;;;;16.07;4.60;;;8.00;99.90;;;;;;4978323;28;20227;-61
2022/11/16 07:27:03;;;;;;;15.53;3.60;;;8.00;99.90;;;;;;4987162;28;20208;-61
2022/11/16 07:29:31;;;;;;;13.87;4.20;;;8.00;99.90;;;;;;4979025;28;20230;-61
2022/11/16 07:32:00;;;;;;;16.33;3.90;;;8.00;99.90;;;;;;4992655;28;20206;-61
2022/11/16 07:34:28;;;;;;;11.10;3.43;;;8.00;99.90;;;;;;4984916;28;20279;-61
2022/11/16 07:36:56;;;;;;;16.03;3.93;;;8.00;99.90;;;;;;4978917;28;20191;-61
2022/11/16 07:39:25;;;;;;;15.80;4.80;;;8.00;99.90;;;;;;4993618;28;20192;-60
2022/11/16 07:41:53;;;;;;;10.10;3.83;;;8.10;99.90;;;;;;4980898;28;20195;-61
2022/11/16 07:44:23;;;;;;;10.13;3.63;;;8.10;99.90;;;;;;4986130;28;20209;-61
2022/11/16 07:46:51;;;;;;;21.10;3.83;;;8.10;99.90;;;;;;4985927;28;20392;-61
2022/11/16 07:49:19;;;;;;;12.63;3.17;;;8.10;99.90;;;;;;4984811;28;20219;-61
2022/11/16 07:51:48;;;;;;;9.33;3.60;;;8.20;99.90;;;;;;4982116;28;20203;-61
2022/11/16 07:54:16;;;;;;;8.20;3.50;;;8.20;99.90;;;;;;4982767;28;20650;-61
2022/11/16 07:56:45;;;;;;;14.17;4.23;;;8.30;99.90;;;;;;4985674;28;20213;-61
2022/11/16 07:59:13;;;;;;;15.53;4.00;;;8.30;99.90;;;;;;4986468;28;20210;-61
2022/11/16 08:01:43;;;;;;;6.93;3.53;;;8.30;99.90;;;;;;4987095;28;20188;-61
2022/11/16 08:04:11;;;;;;;10.90;3.27;;;8.30;99.90;;;;;;4977441;28;20203;-61
2022/11/16 08:06:42;;;;;;;9.03;3.23;;;8.40;99.90;;;;;;4978051;28;20188;-61
2022/11/16 08:09:10;;;;;;;14.27;3.50;;;8.40;99.90;;;;;;4984291;28;20195;-61
2022/11/16 08:11:39;;;;;;;9.70;3.60;;;8.40;99.90;;;;;;4973820;28;20228;-61
2022/11/16 08:14:07;;;;;;;18.50;4.10;;;8.40;99.90;;;;;;4987657;28;20209;-62
2022/11/16 08:16:36;;;;;;;12.90;3.50;;;8.50;99.90;;;;;;4974920;28;21381;-61
2022/11/16 08:19:05;;;;;;;15.33;4.03;;;8.50;99.90;;;;;;4985387;28;20245;-61
2022/11/16 08:21:34;;;;;;;12.30;3.90;;;8.50;99.90;;;;;;4987551;28;20184;-61
2022/11/16 08:24:03;;;;;;;11.23;3.93;;;8.60;99.90;;;;;;4986369;28;20195;-61
2022/11/16 08:26:31;;;;;;;7.97;3.50;;;8.60;99.90;;;;;;4989231;28;20202;-61
2022/11/16 08:29:00;;;;;;;11.83;3.50;;;8.60;99.90;;;;;;4977921;28;20203;-61
2022/11/16 08:31:29;;;;;;;7.90;3.20;;;8.70;99.90;;;;;;4988770;28;20877;-61
2022/11/16 08:33:59;;;;;;;9.83;3.67;;;8.70;99.90;;;;;;4978352;28;20199;-61
2022/11/16 08:36:29;;;;;;;11.03;3.60;;;8.80;99.90;;;;;;4974122;28;20199;-61
2022/11/16 08:39:00;;;;;;;6.23;3.30;;;8.80;99.90;;;;;;4982533;28;20677;-61
2022/11/16 08:41:29;;;;;;;8.53;3.53;;;8.90;99.90;;;;;;4977691;28;20716;-61
2022/11/16 08:43:59;;;;;;;15.47;3.90;;;8.90;99.90;;;;;;4978615;28;20248;-61
2022/11/16 08:46:27;;;;;;;6.50;2.97;;;9.00;99.90;;;;;;4980534;28;20191;-61
2022/11/16 08:48:56;;;;;;;8.80;3.10;;;9.00;99.90;;;;;;4987882;28;20592;-61
2022/11/16 08:51:25;;;;;;;6.20;2.80;;;9.10;99.90;;;;;;4986699;28;20227;-61
2022/11/16 08:54:00;;;;;;;8.20;3.30;;;9.20;99.90;;;;;;4988759;28;20211;-61
2022/11/16 08:56:29;;;;;;;14.23;3.63;;;9.30;99.90;;;;;;4980884;28;20263;-61
2022/11/16 08:58:58;;;;;;;10.93;3.17;;;9.40;99.90;;;;;;4988038;28;20207;-61
2022/11/16 09:01:28;;;;;;;13.20;2.83;;;9.50;99.90;;;;;;4979883;28;20642;-61
2022/11/16 09:03:56;;;;;;;11.20;3.10;;;9.60;99.90;;;;;;4982475;28;20261;-61
2022/11/16 09:06:27;;;;;;;11.50;3.40;;;9.60;99.90;;;;;;4977339;28;20231;-61
2022/11/16 09:08:55;;;;;;;7.43;3.10;;;9.70;99.90;;;;;;4981877;28;20557;-62
2022/11/16 09:11:26;;;;;;;11.33;2.80;;;9.80;99.90;;;;;;4978311;28;21273;-62
2022/11/16 09:13:55;;;;;;;6.17;2.57;;;9.80;99.90;;;;;;5003498;28;20204;-62
2022/11/16 09:16:23;;;;;;;7.03;2.80;;;9.80;99.90;;;;;;4981815;28;20257;-61
2022/11/16 09:18:52;;;;;;;6.73;2.97;;;9.80;99.90;;;;;;4981234;28;20227;-61
2022/11/16 09:21:23;;;;;;;21.77;3.20;;;9.90;99.90;;;;;;4980309;28;20619;-62
2022/11/16 09:23:53;;;;;;;4.20;2.63;;;9.90;99.90;;;;;;4979023;28;20199;-62
2022/11/16 09:26:22;;;;;;;10.77;3.00;;;9.90;99.90;;;;;;4976654;28;20210;-61
2022/11/16 09:28:56;;;;;;;4.47;3.00;;;9.90;99.90;;;;;;4986900;28;20199;-61
2022/11/16 09:31:26;;;;;;;12.27;3.43;;;10.00;99.90;;;;;;5009684;28;20582;-62
2022/11/16 09:33:57;;;;;;;8.33;3.00;;;10.00;99.90;;;;;;4978620;28;20205;-61
2022/11/16 09:36:26;;;;;;;4.90;2.73;;;10.00;99.90;;;;;;4977450;28;20282;-61
2022/11/16 09:38:54;;;;;;;10.40;3.47;;;10.00;99.90;;;;;;4974918;28;20208;-61
2022/11/16 09:42:07;;;;;;;8.83;3.07;;;10.00;99.90;;;;;;4980294;28;20218;-61
2022/11/16 09:45:06;;;;;;;10.93;3.40;;;10.00;99.90;;;;;;4973101;28;20286;-61
2022/11/16 09:47:48;;;;;;;11.83;3.13;;;10.10;99.90;;;;;;4978173;28;20203;-61
2022/11/16 09:50:33;;;;;;;11.60;2.90;;;10.10;99.90;;;;;;4997243;28;20218;-61
2022/11/16 09:53:14;;;;;;;14.27;3.40;;;10.00;99.90;;;;;;4979022;28;20739;-61
2022/11/16 09:55:47;;;;;;;6.30;2.33;;;10.00;99.90;;;;;;4978393;28;20218;-62
2022/11/16 09:58:20;;;;;;;6.77;2.73;;;10.10;99.90;;;;;;4976218;28;20203;-62
2022/11/16 10:00:56;;;;;;;7.27;2.57;;;10.20;99.90;;;;;;4979311;28;20503;-61
2022/11/16 10:03:26;;;;;;;6.20;2.83;;;10.30;99.90;;;;;;5012748;28;20219;-61
2022/11/16 10:06:02;;;;;;;7.50;2.53;;;10.40;99.90;;;;;;4979577;28;20200;-62
2022/11/16 10:08:42;;;;;;;9.63;2.67;;;10.60;99.90;;;;;;4973433;28;20187;-62
2022/11/16 10:11:36;;;;;;;9.90;2.70;;;10.70;99.90;;;;;;4981618;28;20218;-61
2022/11/16 10:14:18;;;;;;;7.47;2.83;;;10.70;99.90;;;;;;4976977;28;20283;-62
2022/11/16 10:16:52;;;;;;;10.53;2.70;;;10.80;99.90;;;;;;4978392;28;20665;-61
2022/11/16 10:19:30;;;;;;;7.53;2.50;;;10.90;99.90;;;;;;4978292;28;20577;-62
2022/11/16 10:22:03;;;;;;;6.20;3.00;;;11.00;99.90;;;;;;4977922;28;20218;-61
2022/11/16 10:24:52;;;;;;;9.00;2.47;;;11.00;99.90;;;;;;4975211;28;20203;-63
2022/11/16 10:27:57;;;;;;;7.10;2.70;;;11.00;99.90;;;;;;4986238;28;20203;-63
2022/11/16 10:30:26;;;;;;;11.67;2.57;;;10.90;99.90;;;;;;4978753;28;20194;-63
2022/11/16 10:33:01;;;;;;;10.13;2.97;;;10.90;99.90;;;;;;4979820;28;20246;-62
2022/11/16 10:35:40;;;;;;;11.70;2.67;;;11.00;99.90;;;;;;4981206;28;20539;-62
2022/11/16 10:38:13;;;;;;;11.80;3.17;;;11.10;99.90;;;;;;4982399;28;20187;-63
2022/11/16 10:40:46;;;;;;;7.60;2.57;;;11.20;99.90;;;;;;4979658;28;20274;-63
2022/11/16 10:43:16;;;;;;;5.73;2.10;;;11.40;99.90;;;;;;4983374;28;20191;-62
2022/11/16 10:45:50;;;;;;;9.50;2.17;;;11.60;99.90;;;;;;4977559;28;20195;-62
2022/11/16 10:48:30;;;;;;;4.00;2.00;;;11.80;99.90;;;;;;4994142;28;20276;-63
2022/11/16 10:50:59;;;;;;;9.33;2.50;;;12.10;99.90;;;;;;4979397;28;20206;-63
2022/11/16 10:53:29;;;;;;;7.07;2.40;;;12.10;99.90;;;;;;4972575;28;20692;-63
2022/11/16 10:56:11;;;;;;;8.67;2.13;;;12.20;99.90;;;;;;4983646;28;20721;-63
2022/11/16 10:58:51;;;;;;;7.47;2.13;;;12.10;99.90;;;;;;4981097;28;20229;-63
2022/11/16 11:01:35;;;;;;;5.93;2.37;;;12.00;99.90;;;;;;4972554;28;20199;-63
2022/11/16 11:04:19;;;;;;;7.83;2.53;;;12.00;99.90;;;;;;4983260;28;20273;-62
2022/11/16 11:06:51;;;;;;;8.43;2.30;;;12.00;99.90;;;;;;4986622;28;20619;-62
2022/11/16 11:09:25;;;;;;;5.03;2.27;;;12.00;99.90;;;;;;4981715;28;20207;-62
2022/11/16 11:14:59;;;;;;;8.10;2.37;;;12.00;99.90;;;;;;4986724;28;20198;-63
2022/11/16 11:17:28;;;;;;;9.83;2.60;;;12.10;99.90;;;;;;4985122;28;20565;-63
2022/11/16 11:20:00;;;;;;;4.43;1.80;;;12.20;99.90;;;;;;4973991;28;20769;-63
2022/11/16 11:22:29;;;;;;;8.53;2.30;;;12.20;99.90;;;;;;4972291;28;20204;-63
2022/11/16 11:24:58;;;;;;;7.83;2.30;;;12.30;99.90;;;;;;4982822;28;20211;-63
2022/11/16 11:27:32;;;;;;;7.27;2.00;;;12.40;99.90;;;;;;4984403;28;20221;-63
2022/11/16 11:30:01;;;;;;;6.03;2.10;;;12.70;99.90;;;;;;4980548;28;20204;-63
2022/11/16 11:32:34;;;;;;;5.90;2.30;;;12.70;99.90;;;;;;4984291;28;20210;-63
2022/11/16 11:35:06;;;;;;;3.10;2.07;;;12.40;99.90;;;;;;4973257;28;20203;-63
2022/11/16 11:37:38;;;;;;;8.50;2.60;;;12.10;99.90;;;;;;5005761;28;20196;-63
2022/11/16 11:40:22;;;;;;;5.13;2.40;;;11.90;99.90;;;;;;4975659;28;20548;-63
2022/11/16 11:42:58;;;;;;;9.77;2.40;;;11.80;99.90;;;;;;4977605;28;20192;-63
2022/11/16 11:45:42;;;;;;;7.77;2.30;;;11.70;99.90;;;;;;4980115;28;20588;-62
2022/11/16 11:48:27;;;;;;;10.13;2.50;;;11.80;99.90;;;;;;5005311;28;20215;-63
2022/11/16 11:51:00;;;;;;;5.83;2.60;;;11.70;99.90;;;;;;5009220;28;20202;-63
2022/11/16 11:53:42;;;;;;;8.87;2.40;;;11.50;99.90;;;;;;4998783;28;20309;-62
2022/11/16 11:56:12;;;;;;;5.57;2.50;;;11.40;99.90;;;;;;4986805;28;20200;-62
2022/11/16 11:58:43;;;;;;;8.43;2.60;;;11.40;99.90;;;;;;4980588;28;20789;-63
2022/11/16 12:01:37;;;;;;;9.93;2.87;;;11.30;99.90;;;;;;4981447;28;20526;-62
2022/11/16 12:04:38;;;;;;;7.03;2.60;;;11.30;99.90;;;;;;4978151;28;20215;-63
2022/11/16 12:07:14;;;;;;;10.73;4.70;;;11.20;99.90;;;;;;5027143;28;20576;-63
2022/11/16 12:09:49;;;;;;;10.57;3.00;;;11.20;99.90;;;;;;4992061;28;20191;-63
2022/11/16 12:12:30;;;;;;;8.63;3.30;;;11.10;99.90;;;;;;4978052;28;20592;-63
2022/11/16 12:15:22;;;;;;;63.50;28.03;;;11.10;99.90;;;;;;4984311;28;20198;-63
2022/11/16 12:18:02;;;;;;;11.40;3.90;;;11.00;99.90;;;;;;4982857;28;20202;-63
2022/11/16 12:20:39;;;;;;;28.67;13.03;;;11.00;99.90;;;;;;5005357;28;20191;-63
2022/11/16 12:23:38;;;;;;;15.27;4.17;;;11.10;99.90;;;;;;4987380;28;20191;-63
2022/11/16 12:26:11;;;;;;;10.43;3.20;;;11.00;99.90;;;;;;4978536;28;20574;-63
2022/11/16 12:28:53;;;;;;;12.67;3.30;;;11.00;99.90;;;;;;4983615;28;20188;-63
2022/11/16 12:31:47;;;;;;;11.07;3.70;;;11.00;99.90;;;;;;4976892;28;20210;-63
2022/11/16 12:34:28;;;;;;;14.43;3.37;;;11.00;99.90;;;;;;4982854;28;20204;-63
2022/11/16 12:37:02;;;;;;;12.47;3.80;;;11.10;99.90;;;;;;4985063;28;20205;-63
2022/11/16 12:39:35;;;;;;;12.63;5.40;;;11.10;99.90;;;;;;4984011;28;20506;-63
2022/11/16 12:42:29;;;;;;;13.87;2.87;;;11.20;99.90;;;;;;4981363;28;20233;-64
2022/11/16 12:45:17;;;;;;;15.70;3.83;;;11.20;99.90;;;;;;4974122;28;20223;-64
2022/11/16 12:48:09;;;;;;;12.30;3.57;;;11.10;99.90;;;;;;5003869;28;20286;-64
2022/11/16 12:50:49;;;;;;;14.90;4.17;;;11.10;99.90;;;;;;4973871;28;20545;-63
2022/11/16 12:53:30;;;;;;;15.33;5.00;;;11.10;99.90;;;;;;4975488;28;20218;-64
2022/11/16 12:56:09;;;;;;;19.90;5.77;;;11.00;99.90;;;;;;4979806;28;20773;-64
2022/11/16 12:58:55;;;;;;;13.53;8.30;;;11.00;99.90;;;;;;4975823;28;20594;-63
2022/11/16 13:01:33;;;;;;;13.93;4.37;;;11.10;99.90;;;;;;4974996;28;20203;-63
2022/11/16 13:04:10;;;;;;;11.63;3.70;;;11.10;99.90;;;;;;4976661;28;20290;-63
2022/11/16 13:06:45;;;;;;;11.27;3.93;;;11.30;99.90;;;;;;4971544;28;20191;-64
2022/11/16 13:09:18;;;;;;;12.17;3.67;;;11.50;99.90;;;;;;5010991;28;20202;-63
2022/11/16 13:11:51;;;;;;;13.07;4.83;;;11.50;99.90;;;;;;4988526;28;20192;-63
2022/11/16 13:14:24;;;;;;;8.80;3.40;;;11.50;99.90;;;;;;4982254;28;20664;-63
2022/11/16 13:16:54;;;;;;;17.53;3.90;;;11.50;99.90;;;;;;4983541;28;20229;-63
2022/11/16 13:19:24;;;;;;;10.50;3.63;;;11.40;99.90;;;;;;4975882;28;20231;-63
2022/11/16 13:22:01;;;;;;;16.37;5.47;;;11.40;99.90;;;;;;4976886;28;20207;-63
2022/11/16 13:24:43;;;;;;;16.57;5.17;;;11.30;99.90;;;;;;4997761;28;20263;-64
2022/11/16 13:27:28;;;;;;;9.70;3.67;;;11.30;99.90;;;;;;4974292;28;20183;-64
2022/11/16 13:30:01;;;;;;;8.83;3.63;;;11.40;99.90;;;;;;4974305;28;20195;-64
2022/11/16 13:32:46;;;;;;;12.73;4.27;;;11.40;99.90;;;;;;4998881;28;20332;-63
2022/11/16 13:35:17;;;;;;;11.23;3.57;;;11.40;99.90;;;;;;5026003;28;20195;-64
2022/11/16 13:37:46;;;;;;;11.50;4.07;;;11.50;99.90;;;;;;4990044;28;20199;-63
2022/11/16 13:40:29;;;;;;;9.37;4.03;;;11.40;99.90;;;;;;4978356;28;20199;-64
2022/11/16 13:43:18;;;;;;;13.37;7.10;;;11.40;99.90;;;;;;4973149;28;20603;-63
2022/11/16 13:45:58;;;;;;;14.80;4.33;;;11.40;99.90;;;;;;4969948;28;20199;-63
2022/11/16 13:48:32;;;;;;;11.50;3.93;;;11.40;99.90;;;;;;4971724;28;20230;-63
2022/11/16 13:51:04;;;;;;;10.13;4.00;;;11.40;99.90;;;;;;4981830;28;20284;-63
2022/11/16 13:53:36;;;;;;;10.57;3.30;;;11.40;99.90;;;;;;4974938;28;20622;-63
2022/11/16 13:56:25;;;;;;;12.57;3.90;;;11.50;99.90;;;;;;4976725;28;20771;-64
2022/11/16 13:58:59;;;;;;;15.80;4.33;;;11.50;99.90;;;;;;4980976;28;20203;-63
2022/11/16 14:01:55;;;;;;;14.27;5.77;;;11.50;99.90;;;;;;4982862;28;20187;-63